createdAt,value
2019-02-16T00:01:30.549Z,39.50
2019-02-16T00:04:01.124Z,38.10
2019-02-16T00:06:31.633Z,38.83
2019-02-16T00:09:02.148Z,32.10
2019-02-16T00:11:32.811Z,25.07
2019-02-16T00:14:03.339Z,30.40
2019-02-16T00:16:33.792Z,38.93
2019-02-16T00:19:04.366Z,35.93
2019-02-16T00:21:34.984Z,37.13
2019-02-16T00:24:05.473Z,31.70
2019-02-16T00:26:35.890Z,26.27
2019-02-16T00:29:06.504Z,24.60
2019-02-16T00:31:36.812Z,23.87
2019-02-16T00:34:07.171Z,20.97
2019-02-16T00:36:37.695Z,30.67
2019-02-16T00:39:08.176Z,29.07
2019-02-16T00:41:39.214Z,31.23
2019-02-16T00:44:09.781Z,28.67
2019-02-16T00:46:40.231Z,35.97
2019-02-16T00:49:10.812Z,43.57
2019-02-16T00:51:41.331Z,47.33
2019-02-16T00:54:11.859Z,42.57
2019-02-16T00:56:42.500Z,39.30
2019-02-16T00:59:13.201Z,33.90
2019-02-16T01:01:43.733Z,28.37
2019-02-16T01:04:14.150Z,27.93
2019-02-16T01:06:44.738Z,30.83
2019-02-16T01:09:15.322Z,31.53
2019-02-16T01:11:45.770Z,35.73
2019-02-16T01:14:16.351Z,85.03
2019-02-16T01:16:46.850Z,104.93
2019-02-16T01:19:17.294Z,98.23
2019-02-16T01:21:48.083Z,53.47
2019-02-16T01:24:18.631Z,29.97
2019-02-16T01:26:48.944Z,34.00
2019-02-16T01:29:19.421Z,27.43
2019-02-16T01:31:49.825Z,28.53
2019-02-16T01:34:20.140Z,31.40
2019-02-16T01:36:50.615Z,34.90
2019-02-16T01:39:21.201Z,27.83
2019-02-16T01:41:51.982Z,42.17
2019-02-16T01:44:22.352Z,42.90
2019-02-16T01:46:52.822Z,52.20
2019-02-16T01:49:23.170Z,47.53
2019-02-16T01:51:53.970Z,45.90
2019-02-16T01:54:24.540Z,55.63
2019-02-16T01:56:55.050Z,54.13
2019-02-16T01:59:25.563Z,62.70
2019-02-16T02:01:55.870Z,63.70
2019-02-16T02:04:26.310Z,68.03
2019-02-16T02:06:57.301Z,71.53
2019-02-16T02:09:27.790Z,87.63
2019-02-16T02:11:58.222Z,77.70
2019-02-16T02:14:28.683Z,88.53
2019-02-16T02:16:59.119Z,72.20
2019-02-16T02:19:29.451Z,71.00
2019-02-16T02:21:59.919Z,75.93
2019-02-16T02:24:30.434Z,77.90
2019-02-16T02:27:00.900Z,80.07
2019-02-16T02:29:31.760Z,82.57
2019-02-16T02:32:02.381Z,70.27
2019-02-16T02:34:32.931Z,67.10
2019-02-16T02:37:03.413Z,66.93
2019-02-16T02:39:33.840Z,69.50
2019-02-16T02:42:04.375Z,65.20
2019-02-16T02:44:34.722Z,40.60
2019-02-16T02:47:05.135Z,38.53
2019-02-16T02:49:35.551Z,33.60
2019-02-16T02:52:06.046Z,35.67
2019-02-16T02:54:36.691Z,34.30
2019-02-16T02:57:07.145Z,32.23
2019-02-16T02:59:37.569Z,32.83
2019-02-16T03:02:08.349Z,36.07
2019-02-16T03:04:38.845Z,34.57
2019-02-16T03:07:09.276Z,32.13
2019-02-16T03:09:39.705Z,35.80
2019-02-16T03:12:10.075Z,26.23
2019-02-16T03:14:40.570Z,32.33
2019-02-16T03:17:11.191Z,36.60
2019-02-16T03:19:41.749Z,34.90
2019-02-16T03:22:12.213Z,33.53
2019-02-16T03:24:43.264Z,35.60
2019-02-16T03:28:11.107Z,49.40
2019-02-16T03:31:39.020Z,55.07
2019-02-16T03:34:19.695Z,62.53
2019-02-16T03:37:35.850Z,71.77
2019-02-16T03:40:25.587Z,71.33
2019-02-16T03:42:56.359Z,79.60
2019-02-16T03:45:26.886Z,82.53
2019-02-16T03:47:57.465Z,82.60
2019-02-16T03:50:27.865Z,85.43
2019-02-16T03:52:58.203Z,85.53
2019-02-16T03:55:28.579Z,105.67
2019-02-16T03:57:59.194Z,106.90
2019-02-16T04:00:29.637Z,97.20
2019-02-16T04:03:00.474Z,94.97
2019-02-16T04:05:30.971Z,86.93
2019-02-16T04:08:01.420Z,83.00
2019-02-16T04:10:31.850Z,80.00
2019-02-16T04:13:02.191Z,90.63
2019-02-16T04:15:32.677Z,83.63
2019-02-16T04:18:03.233Z,83.17
2019-02-16T04:20:33.646Z,81.13
2019-02-16T04:23:04.163Z,79.77
2019-02-16T04:25:34.740Z,77.10
2019-02-16T04:28:05.132Z,79.53
2019-02-16T04:30:35.740Z,92.03
2019-02-16T04:33:06.188Z,80.47
2019-02-16T04:35:36.716Z,75.60
2019-02-16T04:38:07.382Z,79.67
2019-02-16T04:40:37.879Z,76.97
2019-02-16T04:43:08.330Z,75.03
2019-02-16T04:45:38.720Z,73.17
2019-02-16T04:48:09.196Z,80.63
2019-02-16T04:50:39.540Z,72.60
2019-02-16T04:53:10.042Z,79.23
2019-02-16T04:55:40.770Z,75.30
2019-02-16T04:58:11.260Z,78.93
2019-02-16T05:00:41.780Z,79.87
2019-02-16T05:03:12.151Z,79.13
2019-02-16T05:05:42.648Z,73.60
2019-02-16T05:08:13.027Z,71.60
2019-02-16T05:10:43.424Z,74.90
2019-02-16T05:13:13.934Z,72.77
2019-02-16T05:15:44.437Z,69.60
2019-02-16T05:18:14.833Z,66.33
2019-02-16T05:20:45.260Z,62.60
2019-02-16T05:23:15.913Z,61.60
2019-02-16T05:25:46.370Z,56.97
2019-02-16T05:28:16.781Z,53.33
2019-02-16T05:30:47.275Z,50.83
2019-02-16T05:33:17.770Z,50.30
2019-02-16T05:35:48.143Z,52.07
2019-02-16T05:38:18.562Z,53.43
2019-02-16T05:40:49.040Z,56.13
2019-02-16T05:43:19.599Z,58.63
2019-02-16T05:45:49.921Z,52.57
2019-02-16T05:48:20.363Z,49.77
2019-02-16T05:50:50.849Z,53.93
2019-02-16T05:53:21.187Z,52.60
2019-02-16T05:55:51.732Z,56.33
2019-02-16T05:58:22.269Z,50.97
2019-02-16T06:00:52.851Z,52.00
2019-02-16T06:03:23.199Z,52.60
2019-02-16T06:05:53.769Z,49.70
2019-02-16T06:08:24.220Z,47.63
2019-02-16T06:10:54.721Z,60.50
2019-02-16T06:13:25.112Z,53.00
2019-02-16T06:15:56.139Z,50.63
2019-02-16T06:18:26.555Z,56.07
2019-02-16T06:20:57.019Z,52.17
2019-02-16T06:23:27.431Z,53.83
2019-02-16T06:25:58.021Z,55.63
2019-02-16T06:28:28.517Z,51.20
2019-02-16T06:30:59.094Z,64.73
2019-02-16T06:33:29.454Z,55.97
2019-02-16T06:36:04.545Z,65.10
2019-02-16T06:38:35.004Z,70.30
2019-02-16T06:41:05.901Z,61.50
2019-02-16T06:43:36.518Z,73.83
2019-02-16T06:46:08.494Z,80.20
2019-02-16T06:48:39.388Z,85.03
2019-02-16T06:51:10.743Z,85.17
2019-02-16T06:53:42.187Z,75.80
2019-02-16T06:56:33.120Z,83.57
2019-02-16T06:59:03.750Z,81.93
2019-02-16T07:01:34.495Z,76.57
2019-02-16T07:04:05.282Z,81.47
2019-02-16T07:06:35.901Z,73.17
2019-02-16T07:09:07.847Z,72.60
2019-02-16T07:11:39.225Z,72.10
2019-02-16T07:14:09.673Z,67.43
2019-02-16T07:16:51.975Z,63.73
2019-02-16T07:19:25.632Z,59.60
2019-02-16T07:21:56.230Z,62.93
2019-02-16T07:24:26.754Z,58.03
2019-02-16T07:26:57.566Z,55.27
2019-02-16T07:29:28.117Z,57.07
2019-02-16T07:31:58.623Z,57.27
2019-02-16T07:34:29.068Z,59.03
2019-02-16T07:36:59.547Z,57.93
2019-02-16T07:39:30.009Z,57.83
2019-02-16T07:42:00.575Z,59.60
2019-02-16T07:44:37.036Z,59.83
2019-02-16T07:47:26.382Z,55.40
2019-02-16T07:50:15.695Z,56.80
2019-02-16T07:52:56.485Z,60.10
2019-02-16T07:55:34.145Z,58.10
2019-02-16T07:58:12.692Z,59.83
2019-02-16T08:01:00.350Z,55.83
2019-02-16T08:03:49.639Z,57.83
2019-02-16T08:06:35.434Z,56.10
2019-02-16T08:09:14.674Z,57.87
2019-02-16T08:11:52.029Z,56.73
2019-02-16T08:14:36.690Z,58.93
2019-02-16T08:17:26.069Z,57.87
2019-02-16T08:20:07.454Z,54.87
2019-02-16T08:22:43.974Z,53.30
2019-02-16T08:25:33.450Z,58.77
2019-02-16T08:28:13.515Z,56.97
2019-02-16T08:30:52.109Z,59.73
2019-02-16T08:33:36.666Z,55.17
2019-02-16T08:36:26.412Z,55.80
2019-02-16T08:39:10.794Z,56.07
2019-02-16T08:41:57.518Z,53.53
2019-02-16T08:44:46.820Z,55.43
2019-02-16T08:47:30.646Z,55.67
2019-02-16T08:50:19.942Z,51.13
2019-02-16T08:53:09.820Z,52.60
2019-02-16T08:55:52.963Z,49.40
2019-02-16T08:58:36.983Z,50.43
2019-02-16T09:01:27.552Z,53.20
2019-02-16T09:04:17.120Z,49.03
2019-02-16T09:06:53.500Z,45.97
2019-02-16T09:09:39.665Z,47.00
2019-02-16T09:12:29.112Z,47.50
2019-02-16T09:15:07.142Z,45.60
2019-02-16T09:17:56.750Z,45.27
2019-02-16T09:20:46.180Z,47.70
2019-02-16T09:23:35.420Z,49.27
2019-02-16T09:26:24.820Z,43.20
2019-02-16T09:29:03.110Z,47.93
2019-02-16T09:31:44.219Z,46.50
2019-02-16T09:34:33.559Z,41.53
2019-02-16T09:37:11.285Z,39.70
2019-02-16T09:40:00.171Z,43.83
2019-02-16T09:42:43.470Z,40.30
2019-02-16T09:45:31.410Z,45.07
2019-02-16T09:48:11.186Z,43.17
2019-02-16T09:50:52.182Z,46.30
2019-02-16T09:53:34.151Z,44.33
2019-02-16T09:56:19.709Z,46.83
2019-02-16T09:59:09.046Z,49.63
2019-02-16T10:01:45.009Z,48.30
2019-02-16T10:04:34.394Z,54.47
2019-02-16T10:07:23.949Z,53.00
2019-02-16T10:10:13.265Z,54.77
2019-02-16T10:12:52.791Z,54.77
2019-02-16T10:15:42.141Z,56.87
2019-02-16T10:18:31.523Z,56.30
2019-02-16T10:21:21.010Z,57.90
2019-02-16T10:24:17.532Z,54.47
2019-02-16T10:27:01.749Z,57.70
2019-02-16T10:29:51.595Z,57.60
2019-02-16T10:32:38.690Z,58.53
2019-02-16T10:35:21.971Z,60.70
2019-02-16T10:38:03.061Z,56.03
2019-02-16T10:40:52.251Z,60.13
2019-02-16T10:43:41.711Z,54.33
2019-02-16T10:46:31.299Z,56.37
2019-02-16T10:49:20.720Z,59.50
2019-02-16T10:52:06.580Z,52.43
2019-02-16T10:54:56.055Z,46.67
2019-02-16T10:57:45.437Z,52.20
2019-02-16T11:00:28.253Z,50.83
2019-02-16T11:03:09.409Z,49.53
2019-02-16T11:05:59.284Z,52.73
2019-02-16T11:08:45.020Z,49.33
2019-02-16T11:11:25.024Z,53.80
2019-02-16T11:14:11.121Z,50.80
2019-02-16T11:17:00.473Z,48.40
2019-02-16T11:19:43.391Z,48.60
2019-02-16T11:22:29.781Z,51.67
2019-02-16T11:25:08.522Z,51.17
2019-02-16T11:27:47.011Z,51.37
2019-02-16T11:30:36.511Z,50.27
2019-02-16T11:33:21.878Z,56.67
2019-02-16T11:36:11.644Z,56.77
2019-02-16T11:39:00.855Z,51.90
2019-02-16T11:41:39.235Z,50.63
2019-02-16T11:44:22.928Z,50.23
2019-02-16T11:47:12.205Z,52.17
2019-02-16T11:50:01.534Z,53.53
2019-02-16T11:52:50.887Z,47.30
2019-02-16T11:55:28.403Z,50.43
2019-02-16T11:58:16.641Z,50.17
2019-02-16T12:00:55.524Z,52.53
2019-02-16T12:03:38.915Z,52.70
2019-02-16T12:06:20.991Z,52.30
2019-02-16T12:09:10.275Z,52.23
2019-02-16T12:11:50.752Z,50.67
2019-02-16T12:14:38.440Z,49.27
2019-02-16T12:17:27.200Z,54.60
2019-02-16T12:20:13.259Z,48.20
2019-02-16T12:22:57.660Z,51.90
2019-02-16T12:25:47.122Z,50.07
2019-02-16T12:28:23.481Z,48.10
2019-02-16T12:31:13.012Z,48.90
2019-02-16T12:34:02.312Z,48.07
2019-02-16T12:36:47.951Z,44.57
2019-02-16T12:39:30.022Z,46.37
2019-02-16T12:42:19.351Z,44.33
2019-02-16T12:45:02.481Z,47.37
2019-02-16T12:47:51.835Z,44.47
2019-02-16T12:50:39.773Z,45.07
2019-02-16T12:53:24.778Z,52.40
2019-02-16T12:56:14.121Z,40.47
2019-02-16T12:59:03.448Z,40.43
2019-02-16T13:01:53.123Z,40.10
2019-02-16T13:04:34.184Z,37.57
2019-02-16T13:07:14.922Z,37.97
2019-02-16T13:09:58.246Z,33.00
2019-02-16T13:12:35.513Z,33.03
2019-02-16T13:15:25.649Z,31.47
2019-02-16T13:18:14.843Z,29.67
2019-02-16T13:20:57.848Z,18.83
2019-02-16T13:23:42.173Z,19.93
2019-02-16T13:26:23.995Z,13.97
2019-02-16T13:29:13.736Z,13.57
2019-02-16T13:31:56.611Z,11.27
2019-02-16T13:34:33.894Z,13.03
2019-02-16T13:37:14.741Z,13.17
2019-02-16T13:40:04.075Z,16.93
2019-02-16T13:42:46.432Z,16.67
2019-02-16T13:45:35.842Z,17.90
2019-02-16T13:48:19.965Z,20.67
2019-02-16T13:50:56.785Z,23.50
2019-02-16T13:53:46.243Z,51.17
2019-02-16T13:56:23.490Z,40.53
2019-02-16T13:59:08.911Z,22.70
2019-02-16T14:01:58.734Z,21.20
2019-02-16T14:04:48.032Z,19.77
2019-02-16T14:07:32.952Z,23.63
2019-02-16T14:10:22.240Z,28.90
2019-02-16T14:13:09.820Z,32.83
2019-02-16T14:15:59.134Z,21.87
2019-02-16T14:18:29.622Z,26.10
2019-02-16T14:21:00.219Z,32.63
2019-02-16T14:23:31.027Z,33.23
2019-02-16T14:26:01.532Z,28.77
2019-02-16T14:28:32.041Z,25.40
2019-02-16T14:31:02.561Z,22.40
2019-02-16T14:33:34.079Z,24.07
2019-02-16T14:36:04.782Z,27.13
2019-02-16T14:38:44.509Z,20.37
2019-02-16T14:41:14.949Z,25.93
2019-02-16T14:43:45.542Z,22.77
2019-02-16T14:46:17.001Z,23.20
2019-02-16T14:48:47.630Z,20.77
2019-02-16T14:51:18.210Z,23.13
2019-02-16T14:53:48.883Z,21.30
2019-02-16T14:56:19.341Z,23.87
2019-02-16T14:58:49.840Z,27.70
2019-02-16T15:01:20.386Z,25.73
2019-02-16T15:03:50.891Z,27.00
2019-02-16T15:06:21.471Z,27.93
2019-02-16T15:08:51.911Z,25.87
2019-02-16T15:11:22.402Z,29.17
2019-02-16T15:13:52.932Z,28.00
2019-02-16T15:16:23.540Z,30.83
2019-02-16T15:18:53.942Z,28.80
2019-02-16T15:21:24.323Z,29.50
2019-02-16T15:23:54.703Z,23.53
2019-02-16T15:26:28.574Z,33.60
2019-02-16T15:28:57.681Z,28.57
2019-02-16T15:31:28.230Z,29.17
2019-02-16T15:33:58.721Z,31.50
2019-02-16T15:36:29.244Z,33.77
2019-02-16T15:38:59.760Z,42.33
2019-02-16T15:41:30.424Z,59.27
2019-02-16T15:44:01.010Z,59.90
2019-02-16T15:46:31.439Z,67.80
2019-02-16T15:49:02.770Z,57.83
2019-02-16T15:51:33.327Z,58.17
2019-02-16T15:54:03.691Z,42.17
2019-02-16T15:56:34.266Z,43.83
2019-02-16T15:59:04.860Z,44.40
2019-02-16T16:01:35.514Z,49.03
2019-02-16T16:04:06.091Z,45.67
2019-02-16T16:06:36.636Z,45.40
2019-02-16T16:09:26.590Z,44.00
2019-02-16T16:12:07.641Z,41.10
2019-02-16T16:14:53.992Z,42.93
2019-02-16T16:17:32.570Z,34.47
2019-02-16T16:20:22.046Z,35.13
2019-02-16T16:23:11.330Z,32.23
2019-02-16T16:26:00.772Z,34.40
2019-02-16T16:28:50.171Z,32.30
2019-02-16T16:31:26.261Z,31.83
2019-02-16T16:34:15.670Z,27.43
2019-02-16T16:37:00.641Z,26.37
2019-02-16T16:39:40.525Z,29.70
2019-02-16T16:42:29.963Z,25.53
2019-02-16T16:45:10.546Z,28.37
2019-02-16T16:48:02.121Z,34.30
2019-02-16T16:50:51.482Z,34.90
2019-02-16T16:53:51.474Z,33.20
2019-02-16T16:56:31.195Z,38.47
2019-02-16T16:59:20.583Z,35.17
2019-02-16T17:02:10.529Z,36.83
2019-02-16T17:05:00.293Z,34.33
2019-02-16T17:07:49.839Z,31.33
2019-02-16T17:10:39.619Z,27.07
2019-02-16T17:13:29.065Z,33.33
2019-02-16T17:16:10.770Z,30.70
2019-02-16T17:19:00.160Z,30.57
2019-02-16T17:21:46.489Z,33.60
2019-02-16T17:24:36.547Z,32.13
2019-02-16T17:27:16.365Z,35.50
2019-02-16T17:29:55.811Z,34.33
2019-02-16T17:32:45.397Z,40.20
2019-02-16T17:35:25.795Z,36.40
2019-02-16T17:38:05.222Z,35.23
2019-02-16T17:40:53.934Z,42.93
2019-02-16T17:43:41.683Z,39.07
2019-02-16T17:46:22.626Z,38.43
2019-02-16T17:49:11.981Z,37.93
2019-02-16T17:51:55.868Z,38.93
2019-02-16T17:54:40.670Z,45.37
2019-02-16T17:57:30.401Z,42.57
2019-02-16T18:00:23.433Z,43.13
2019-02-16T18:03:13.984Z,55.97
2019-02-16T18:05:56.227Z,58.97
2019-02-16T18:08:47.786Z,61.77
2019-02-16T18:11:27.229Z,72.53
2019-02-16T18:14:17.821Z,78.13
2019-02-16T18:16:57.834Z,78.07
2019-02-16T18:19:41.081Z,69.70
2019-02-16T18:22:31.474Z,71.13
2019-02-16T18:25:20.850Z,76.17
2019-02-16T18:28:07.481Z,75.40
2019-02-16T18:30:58.004Z,71.67
2019-02-16T18:33:40.605Z,93.13
2019-02-16T18:36:26.057Z,99.67
2019-02-16T18:39:15.052Z,93.80
2019-02-16T18:41:57.549Z,88.33
2019-02-16T18:44:41.801Z,85.23
2019-02-16T18:47:32.626Z,86.77
2019-02-16T18:50:25.273Z,83.37
2019-02-16T18:53:16.126Z,85.73
2019-02-16T18:55:52.480Z,81.40
2019-02-16T18:58:50.526Z,84.90
2019-02-16T19:01:38.993Z,86.13
2019-02-16T19:04:28.365Z,82.30
2019-02-16T19:07:04.092Z,75.27
2019-02-16T19:09:54.982Z,88.83
2019-02-16T19:12:44.459Z,101.80
2019-02-16T19:15:35.116Z,119.40
2019-02-16T19:18:18.168Z,141.63
2019-02-16T19:21:11.999Z,130.70
2019-02-16T19:24:01.454Z,92.53
2019-02-16T19:26:52.601Z,75.90
2019-02-16T19:29:42.424Z,83.23
2019-02-16T19:32:32.803Z,78.03
2019-02-16T19:35:22.291Z,67.37
2019-02-16T19:38:16.895Z,69.13
2019-02-16T19:40:53.298Z,63.77
2019-02-16T19:43:47.265Z,69.27
2019-02-16T19:46:36.792Z,68.83
2019-02-16T19:49:26.301Z,75.53
2019-02-16T19:52:16.776Z,73.33
2019-02-16T19:55:00.705Z,72.67
2019-02-16T19:57:47.117Z,85.57
2019-02-16T20:00:33.389Z,87.93
2019-02-16T20:03:18.448Z,81.33
2019-02-16T20:06:07.948Z,78.90
2019-02-16T20:08:59.558Z,72.00
2019-02-16T20:11:46.331Z,71.20
2019-02-16T20:14:36.248Z,73.40
2019-02-16T20:17:30.911Z,78.00
2019-02-16T20:20:10.763Z,76.13
2019-02-16T20:23:03.163Z,76.77
2019-02-16T20:25:54.660Z,84.27
2019-02-16T20:28:47.560Z,88.37
2019-02-16T20:31:46.385Z,101.30
2019-02-16T20:34:30.677Z,108.07
2019-02-16T20:37:15.933Z,114.97
2019-02-16T20:40:09.701Z,92.70
2019-02-16T20:42:51.711Z,90.57
2019-02-16T20:45:29.751Z,77.37
2019-02-16T20:48:23.036Z,68.57
2019-02-16T20:51:02.063Z,72.70
2019-02-16T20:53:55.195Z,68.67
2019-02-16T20:56:48.016Z,74.53
2019-02-16T20:59:37.547Z,79.10
2019-02-16T21:02:29.945Z,73.00
2019-02-16T21:05:20.717Z,76.90
2019-02-16T21:08:10.424Z,67.53
2019-02-16T21:11:04.462Z,69.73
2019-02-16T21:13:43.535Z,69.47
2019-02-16T21:16:33.047Z,71.87
2019-02-16T21:19:22.371Z,72.47
2019-02-16T21:22:08.893Z,71.73
2019-02-16T21:25:00.575Z,73.47
2019-02-16T21:27:42.153Z,64.43
2019-02-16T21:30:35.903Z,64.03
2019-02-16T21:33:18.373Z,69.50
2019-02-16T21:36:07.757Z,64.27
2019-02-16T21:39:03.246Z,75.37
2019-02-16T21:41:48.321Z,74.23
2019-02-16T21:44:23.628Z,64.77
2019-02-16T21:47:09.423Z,59.93
2019-02-16T21:49:58.901Z,69.43
2019-02-16T21:52:48.277Z,69.43
2019-02-16T21:55:38.146Z,61.63
2019-02-16T21:58:22.502Z,65.77
2019-02-16T22:01:11.940Z,60.63
2019-02-16T22:04:01.597Z,65.20
2019-02-16T22:06:51.102Z,54.53
2019-02-16T22:09:40.347Z,59.10
2019-02-16T22:12:30.020Z,60.17
2019-02-16T22:15:02.344Z,66.10
2019-02-16T22:17:33.097Z,58.80
2019-02-16T22:20:04.456Z,68.43
2019-02-16T22:22:34.886Z,67.80
2019-02-16T22:25:06.019Z,66.60
2019-02-16T22:27:37.027Z,76.07
2019-02-16T22:30:25.604Z,68.93
2019-02-16T22:32:56.790Z,65.27
2019-02-16T22:35:29.609Z,66.73
2019-02-16T22:38:00.763Z,64.73
2019-02-16T22:40:53.016Z,62.87
2019-02-16T22:43:53.713Z,58.00
2019-02-16T22:47:13.809Z,65.73
2019-02-16T22:50:02.490Z,53.93
2019-02-16T22:52:48.531Z,63.97
2019-02-16T22:55:55.402Z,62.03
2019-02-16T22:59:09.205Z,61.53
2019-02-16T23:02:14.933Z,48.10
2019-02-16T23:04:46.220Z,50.23
2019-02-16T23:07:16.755Z,56.37
2019-02-16T23:09:47.420Z,50.63
2019-02-16T23:12:18.306Z,52.07
2019-02-16T23:14:49.222Z,40.97
2019-02-16T23:17:19.822Z,45.73
2019-02-16T23:19:50.401Z,42.73
2019-02-16T23:22:21.004Z,39.30
2019-02-16T23:24:51.623Z,43.07
2019-02-16T23:27:22.258Z,41.43
2019-02-16T23:29:52.857Z,41.53
2019-02-16T23:32:23.333Z,42.43
2019-02-16T23:34:53.886Z,47.63
2019-02-16T23:37:24.406Z,48.47
2019-02-16T23:39:54.855Z,47.53
2019-02-16T23:42:25.995Z,49.13
2019-02-16T23:44:56.562Z,53.23
2019-02-16T23:47:27.021Z,51.67
2019-02-16T23:49:57.535Z,45.93
2019-02-16T23:52:27.966Z,49.17
2019-02-16T23:54:58.490Z,42.37
2019-02-16T23:57:28.990Z,44.80
2019-02-16T23:59:59.511Z,41.23
